sensor_id;sensor_type;location;lat;lon;timestamp;P1;durP1;ratioP1;P2;durP2;ratioP2
38123;SDS011;23934;47.998;9.832;2023-02-23T00:02:10;43.70;;;16.25;;
38123;SDS011;23934;47.998;9.832;2023-02-23T00:04:36;46.58;;;14.80;;
38123;SDS011;23934;47.998;9.832;2023-02-23T00:07:03;46.97;;;15.68;;
38123;SDS011;23934;47.998;9.832;2023-02-23T00:09:30;50.75;;;15.93;;
38123;SDS011;23934;47.998;9.832;2023-02-23T00:11:59;50.30;;;15.07;;
38123;SDS011;23934;47.998;9.832;2023-02-23T00:14:32;42.22;;;15.15;;
38123;SDS011;23934;47.998;9.832;2023-02-23T00:16:58;43.03;;;15.05;;
38123;SDS011;23934;47.998;9.832;2023-02-23T00:19:25;48.67;;;13.88;;
38123;SDS011;23934;47.998;9.832;2023-02-23T00:21:52;34.30;;;13.00;;
38123;SDS011;23934;47.998;9.832;2023-02-23T00:24:18;53.20;;;15.82;;
38123;SDS011;23934;47.998;9.832;2023-02-23T00:26:44;43.53;;;14.38;;
38123;SDS011;23934;47.998;9.832;2023-02-23T00:29:12;35.55;;;13.45;;
38123;SDS011;23934;47.998;9.832;2023-02-23T00:31:41;46.60;;;16.05;;
38123;SDS011;23934;47.998;9.832;2023-02-23T00:34:08;42.72;;;15.63;;
38123;SDS011;23934;47.998;9.832;2023-02-23T00:36:35;46.70;;;15.82;;
38123;SDS011;23934;47.998;9.832;2023-02-23T00:39:02;43.08;;;16.80;;
38123;SDS011;23934;47.998;9.832;2023-02-23T00:41:42;45.08;;;15.82;;
38123;SDS011;23934;47.998;9.832;2023-02-23T00:44:08;45.67;;;14.13;;
38123;SDS011;23934;47.998;9.832;2023-02-23T00:46:34;55.40;;;17.35;;
38123;SDS011;23934;47.998;9.832;2023-02-23T00:49:00;43.08;;;15.65;;
38123;SDS011;23934;47.998;9.832;2023-02-23T00:51:28;46.42;;;15.75;;
38123;SDS011;23934;47.998;9.832;2023-02-23T00:53:55;45.22;;;14.95;;
38123;SDS011;23934;47.998;9.832;2023-02-23T00:56:21;46.08;;;15.02;;
38123;SDS011;23934;47.998;9.832;2023-02-23T00:58:47;53.50;;;16.73;;
38123;SDS011;23934;47.998;9.832;2023-02-23T01:01:13;38.03;;;13.70;;
38123;SDS011;23934;47.998;9.832;2023-02-23T01:03:40;56.88;;;16.83;;
38123;SDS011;23934;47.998;9.832;2023-02-23T01:06:07;55.15;;;16.90;;
38123;SDS011;23934;47.998;9.832;2023-02-23T01:08:34;54.88;;;15.25;;
38123;SDS011;23934;47.998;9.832;2023-02-23T01:11:07;45.00;;;16.30;;
38123;SDS011;23934;47.998;9.832;2023-02-23T01:13:37;58.75;;;17.75;;
38123;SDS011;23934;47.998;9.832;2023-02-23T01:16:08;58.30;;;14.80;;
38123;SDS011;23934;47.998;9.832;2023-02-23T01:18:34;45.15;;;14.02;;
38123;SDS011;23934;47.998;9.832;2023-02-23T01:21:00;38.03;;;14.63;;
38123;SDS011;23934;47.998;9.832;2023-02-23T01:23:27;48.90;;;15.30;;
38123;SDS011;23934;47.998;9.832;2023-02-23T01:25:53;53.00;;;15.18;;
38123;SDS011;23934;47.998;9.832;2023-02-23T01:28:19;45.63;;;15.02;;
38123;SDS011;23934;47.998;9.832;2023-02-23T01:30:44;57.35;;;16.63;;
38123;SDS011;23934;47.998;9.832;2023-02-23T01:33:10;60.83;;;17.10;;
38123;SDS011;23934;47.998;9.832;2023-02-23T01:35:37;49.85;;;18.08;;
38123;SDS011;23934;47.998;9.832;2023-02-23T01:38:03;66.95;;;20.25;;
38123;SDS011;23934;47.998;9.832;2023-02-23T01:40:30;60.78;;;20.42;;
38123;SDS011;23934;47.998;9.832;2023-02-23T01:43:09;69.35;;;19.00;;
38123;SDS011;23934;47.998;9.832;2023-02-23T01:45:36;56.13;;;18.05;;
38123;SDS011;23934;47.998;9.832;2023-02-23T01:48:05;71.18;;;18.63;;
38123;SDS011;23934;47.998;9.832;2023-02-23T01:50:37;180.15;;;47.20;;
38123;SDS011;23934;47.998;9.832;2023-02-23T01:53:04;89.35;;;27.58;;
38123;SDS011;23934;47.998;9.832;2023-02-23T01:55:30;103.55;;;27.52;;
38123;SDS011;23934;47.998;9.832;2023-02-23T01:57:58;86.05;;;26.77;;
38123;SDS011;23934;47.998;9.832;2023-02-23T02:00:26;101.35;;;26.77;;
38123;SDS011;23934;47.998;9.832;2023-02-23T02:02:52;179.57;;;41.20;;
38123;SDS011;23934;47.998;9.832;2023-02-23T02:05:18;70.93;;;21.02;;
38123;SDS011;23934;47.998;9.832;2023-02-23T02:07:45;58.20;;;20.35;;
38123;SDS011;23934;47.998;9.832;2023-02-23T02:10:12;63.58;;;20.75;;
38123;SDS011;23934;47.998;9.832;2023-02-23T02:12:38;69.43;;;20.02;;
38123;SDS011;23934;47.998;9.832;2023-02-23T02:15:05;43.20;;;15.95;;
38123;SDS011;23934;47.998;9.832;2023-02-23T02:20:16;62.63;;;20.52;;
38123;SDS011;23934;47.998;9.832;2023-02-23T02:28:23;66.38;;;19.85;;
38123;SDS011;23934;47.998;9.832;2023-02-23T02:35:48;106.97;;;29.35;;
38123;SDS011;23934;47.998;9.832;2023-02-23T02:46:00;87.13;;;25.48;;
38123;SDS011;23934;47.998;9.832;2023-02-23T02:51:04;86.53;;;26.98;;
38123;SDS011;23934;47.998;9.832;2023-02-23T02:53:36;85.93;;;25.80;;
38123;SDS011;23934;47.998;9.832;2023-02-23T02:56:04;77.80;;;24.95;;
38123;SDS011;23934;47.998;9.832;2023-02-23T02:58:32;70.50;;;24.38;;
38123;SDS011;23934;47.998;9.832;2023-02-23T03:01:04;55.08;;;18.27;;
38123;SDS011;23934;47.998;9.832;2023-02-23T03:03:49;74.63;;;21.77;;
38123;SDS011;23934;47.998;9.832;2023-02-23T03:09:26;77.95;;;23.35;;
38123;SDS011;23934;47.998;9.832;2023-02-23T03:17:59;76.95;;;20.75;;
38123;SDS011;23934;47.998;9.832;2023-02-23T03:20:46;63.63;;;19.70;;
38123;SDS011;23934;47.998;9.832;2023-02-23T03:23:49;68.30;;;21.05;;
38123;SDS011;23934;47.998;9.832;2023-02-23T03:26:47;61.42;;;19.88;;
38123;SDS011;23934;47.998;9.832;2023-02-23T03:29:46;57.83;;;18.17;;
38123;SDS011;23934;47.998;9.832;2023-02-23T03:32:36;64.00;;;18.52;;
38123;SDS011;23934;47.998;9.832;2023-02-23T03:35:26;60.40;;;17.80;;
38123;SDS011;23934;47.998;9.832;2023-02-23T03:38:16;60.50;;;18.42;;
38123;SDS011;23934;47.998;9.832;2023-02-23T03:41:03;70.28;;;19.63;;
38123;SDS011;23934;47.998;9.832;2023-02-23T03:43:54;57.42;;;18.33;;
38123;SDS011;23934;47.998;9.832;2023-02-23T03:46:40;51.90;;;17.50;;
38123;SDS011;23934;47.998;9.832;2023-02-23T03:49:26;59.08;;;19.73;;
38123;SDS011;23934;47.998;9.832;2023-02-23T03:52:14;56.45;;;18.27;;
38123;SDS011;23934;47.998;9.832;2023-02-23T03:55:10;67.00;;;20.48;;
38123;SDS011;23934;47.998;9.832;2023-02-23T03:57:56;54.22;;;18.20;;
38123;SDS011;23934;47.998;9.832;2023-02-23T04:00:44;61.25;;;18.33;;
38123;SDS011;23934;47.998;9.832;2023-02-23T04:03:29;59.00;;;19.13;;
38123;SDS011;23934;47.998;9.832;2023-02-23T04:06:15;47.78;;;17.35;;
38123;SDS011;23934;47.998;9.832;2023-02-23T04:09:03;55.75;;;17.52;;
38123;SDS011;23934;47.998;9.832;2023-02-23T04:11:50;63.60;;;16.63;;
38123;SDS011;23934;47.998;9.832;2023-02-23T04:14:38;57.53;;;18.00;;
38123;SDS011;23934;47.998;9.832;2023-02-23T04:17:06;59.28;;;18.45;;
38123;SDS011;23934;47.998;9.832;2023-02-23T04:19:33;58.97;;;17.88;;
38123;SDS011;23934;47.998;9.832;2023-02-23T04:21:59;58.90;;;17.48;;
38123;SDS011;23934;47.998;9.832;2023-02-23T04:24:25;65.78;;;18.85;;
38123;SDS011;23934;47.998;9.832;2023-02-23T04:26:51;88.43;;;24.55;;
38123;SDS011;23934;47.998;9.832;2023-02-23T04:29:17;99.68;;;27.92;;
38123;SDS011;23934;47.998;9.832;2023-02-23T04:31:43;90.43;;;24.92;;
38123;SDS011;23934;47.998;9.832;2023-02-23T04:34:09;64.45;;;20.52;;
38123;SDS011;23934;47.998;9.832;2023-02-23T04:36:35;50.75;;;16.33;;
38123;SDS011;23934;47.998;9.832;2023-02-23T04:39:02;74.32;;;20.35;;
38123;SDS011;23934;47.998;9.832;2023-02-23T04:41:28;70.82;;;19.67;;
38123;SDS011;23934;47.998;9.832;2023-02-23T04:43:54;102.43;;;27.45;;
38123;SDS011;23934;47.998;9.832;2023-02-23T04:46:20;85.25;;;23.13;;
38123;SDS011;23934;47.998;9.832;2023-02-23T04:48:46;55.67;;;17.80;;
38123;SDS011;23934;47.998;9.832;2023-02-23T04:51:11;70.60;;;19.40;;
38123;SDS011;23934;47.998;9.832;2023-02-23T04:53:37;100.53;;;25.80;;
38123;SDS011;23934;47.998;9.832;2023-02-23T04:56:03;80.78;;;23.70;;
38123;SDS011;23934;47.998;9.832;2023-02-23T04:58:29;70.90;;;20.25;;
38123;SDS011;23934;47.998;9.832;2023-02-23T05:01:02;92.05;;;25.25;;
38123;SDS011;23934;47.998;9.832;2023-02-23T05:03:28;67.38;;;19.90;;
38123;SDS011;23934;47.998;9.832;2023-02-23T05:05:54;64.43;;;22.75;;
38123;SDS011;23934;47.998;9.832;2023-02-23T05:08:20;77.00;;;23.05;;
38123;SDS011;23934;47.998;9.832;2023-02-23T05:10:46;69.75;;;21.70;;
38123;SDS011;23934;47.998;9.832;2023-02-23T05:13:12;65.03;;;19.90;;
38123;SDS011;23934;47.998;9.832;2023-02-23T05:15:37;70.03;;;21.02;;
38123;SDS011;23934;47.998;9.832;2023-02-23T05:18:03;78.35;;;23.90;;
38123;SDS011;23934;47.998;9.832;2023-02-23T05:20:31;68.03;;;22.33;;
38123;SDS011;23934;47.998;9.832;2023-02-23T05:22:57;74.32;;;21.13;;
38123;SDS011;23934;47.998;9.832;2023-02-23T05:25:23;57.20;;;18.27;;
38123;SDS011;23934;47.998;9.832;2023-02-23T05:27:49;83.20;;;20.98;;
38123;SDS011;23934;47.998;9.832;2023-02-23T05:30:15;83.53;;;20.73;;
38123;SDS011;23934;47.998;9.832;2023-02-23T05:32:41;65.75;;;18.27;;
38123;SDS011;23934;47.998;9.832;2023-02-23T05:35:08;61.85;;;20.30;;
38123;SDS011;23934;47.998;9.832;2023-02-23T05:37:34;70.22;;;18.63;;
38123;SDS011;23934;47.998;9.832;2023-02-23T05:40:00;57.95;;;18.13;;
38123;SDS011;23934;47.998;9.832;2023-02-23T05:42:26;51.65;;;17.23;;
38123;SDS011;23934;47.998;9.832;2023-02-23T05:44:52;57.72;;;17.00;;
38123;SDS011;23934;47.998;9.832;2023-02-23T05:47:18;57.75;;;18.58;;
38123;SDS011;23934;47.998;9.832;2023-02-23T05:49:44;75.95;;;19.83;;
38123;SDS011;23934;47.998;9.832;2023-02-23T05:52:10;64.50;;;19.08;;
38123;SDS011;23934;47.998;9.832;2023-02-23T05:54:36;57.35;;;17.70;;
38123;SDS011;23934;47.998;9.832;2023-02-23T05:57:02;55.63;;;17.95;;
38123;SDS011;23934;47.998;9.832;2023-02-23T05:59:28;51.53;;;17.08;;
38123;SDS011;23934;47.998;9.832;2023-02-23T06:01:54;56.35;;;17.27;;
38123;SDS011;23934;47.998;9.832;2023-02-23T06:04:20;67.75;;;16.73;;
38123;SDS011;23934;47.998;9.832;2023-02-23T06:06:47;64.88;;;20.58;;
38123;SDS011;23934;47.998;9.832;2023-02-23T06:09:13;57.58;;;18.75;;
38123;SDS011;23934;47.998;9.832;2023-02-23T06:11:39;55.22;;;16.92;;
38123;SDS011;23934;47.998;9.832;2023-02-23T06:14:05;61.30;;;16.35;;
38123;SDS011;23934;47.998;9.832;2023-02-23T06:16:31;51.15;;;15.02;;
38123;SDS011;23934;47.998;9.832;2023-02-23T06:18:56;48.35;;;15.27;;
38123;SDS011;23934;47.998;9.832;2023-02-23T06:21:22;57.53;;;17.08;;
38123;SDS011;23934;47.998;9.832;2023-02-23T06:23:49;49.83;;;14.63;;
38123;SDS011;23934;47.998;9.832;2023-02-23T06:26:15;49.42;;;16.13;;
38123;SDS011;23934;47.998;9.832;2023-02-23T06:28:41;47.95;;;14.40;;
38123;SDS011;23934;47.998;9.832;2023-02-23T06:31:07;68.10;;;17.10;;
38123;SDS011;23934;47.998;9.832;2023-02-23T06:33:33;56.42;;;15.88;;
38123;SDS011;23934;47.998;9.832;2023-02-23T06:35:59;39.53;;;13.85;;
38123;SDS011;23934;47.998;9.832;2023-02-23T06:38:25;50.40;;;16.05;;
38123;SDS011;23934;47.998;9.832;2023-02-23T06:40:51;55.15;;;15.18;;
38123;SDS011;23934;47.998;9.832;2023-02-23T06:43:17;48.40;;;15.02;;
38123;SDS011;23934;47.998;9.832;2023-02-23T06:45:45;54.28;;;15.10;;
38123;SDS011;23934;47.998;9.832;2023-02-23T06:48:11;45.05;;;14.65;;
38123;SDS011;23934;47.998;9.832;2023-02-23T06:50:37;37.15;;;13.65;;
38123;SDS011;23934;47.998;9.832;2023-02-23T06:53:03;53.58;;;14.82;;
38123;SDS011;23934;47.998;9.832;2023-02-23T06:55:29;47.22;;;13.70;;
38123;SDS011;23934;47.998;9.832;2023-02-23T06:57:55;38.25;;;12.38;;
38123;SDS011;23934;47.998;9.832;2023-02-23T07:00:21;40.63;;;13.73;;
38123;SDS011;23934;47.998;9.832;2023-02-23T07:02:47;47.55;;;14.55;;
38123;SDS011;23934;47.998;9.832;2023-02-23T07:05:13;42.17;;;13.82;;
38123;SDS011;23934;47.998;9.832;2023-02-23T07:07:39;38.97;;;13.50;;
38123;SDS011;23934;47.998;9.832;2023-02-23T07:10:05;44.40;;;13.05;;
38123;SDS011;23934;47.998;9.832;2023-02-23T07:12:31;40.45;;;13.50;;
38123;SDS011;23934;47.998;9.832;2023-02-23T07:14:57;49.38;;;14.10;;
38123;SDS011;23934;47.998;9.832;2023-02-23T07:17:23;56.25;;;14.75;;
38123;SDS011;23934;47.998;9.832;2023-02-23T07:19:49;54.42;;;15.98;;
38123;SDS011;23934;47.998;9.832;2023-02-23T07:22:15;69.03;;;16.92;;
38123;SDS011;23934;47.998;9.832;2023-02-23T07:24:41;52.88;;;15.27;;
38123;SDS011;23934;47.998;9.832;2023-02-23T07:27:07;56.80;;;13.98;;
38123;SDS011;23934;47.998;9.832;2023-02-23T07:29:33;52.13;;;14.80;;
38123;SDS011;23934;47.998;9.832;2023-02-23T07:31:59;51.33;;;15.90;;
38123;SDS011;23934;47.998;9.832;2023-02-23T07:34:25;69.75;;;20.83;;
38123;SDS011;23934;47.998;9.832;2023-02-23T07:36:51;63.03;;;17.67;;
38123;SDS011;23934;47.998;9.832;2023-02-23T07:39:17;53.63;;;15.68;;
38123;SDS011;23934;47.998;9.832;2023-02-23T07:41:43;59.13;;;16.80;;
38123;SDS011;23934;47.998;9.832;2023-02-23T07:44:09;63.08;;;15.40;;
38123;SDS011;23934;47.998;9.832;2023-02-23T07:46:35;66.03;;;17.50;;
38123;SDS011;23934;47.998;9.832;2023-02-23T07:49:01;62.47;;;17.60;;
38123;SDS011;23934;47.998;9.832;2023-02-23T07:51:28;56.45;;;15.55;;
38123;SDS011;23934;47.998;9.832;2023-02-23T07:53:54;60.13;;;16.38;;
38123;SDS011;23934;47.998;9.832;2023-02-23T07:56:19;61.90;;;18.42;;
38123;SDS011;23934;47.998;9.832;2023-02-23T07:58:45;46.35;;;15.82;;
38123;SDS011;23934;47.998;9.832;2023-02-23T08:01:12;53.95;;;15.00;;
38123;SDS011;23934;47.998;9.832;2023-02-23T08:03:38;47.47;;;15.10;;
38123;SDS011;23934;47.998;9.832;2023-02-23T08:06:05;46.45;;;14.50;;
38123;SDS011;23934;47.998;9.832;2023-02-23T08:08:31;48.17;;;13.98;;
38123;SDS011;23934;47.998;9.832;2023-02-23T08:10:59;40.05;;;13.88;;
38123;SDS011;23934;47.998;9.832;2023-02-23T08:13:25;40.38;;;12.88;;
38123;SDS011;23934;47.998;9.832;2023-02-23T08:15:51;37.60;;;12.70;;
38123;SDS011;23934;47.998;9.832;2023-02-23T08:18:17;42.17;;;13.85;;
38123;SDS011;23934;47.998;9.832;2023-02-23T08:20:43;40.40;;;13.88;;
38123;SDS011;23934;47.998;9.832;2023-02-23T08:23:09;41.72;;;13.30;;
38123;SDS011;23934;47.998;9.832;2023-02-23T08:25:36;38.53;;;12.25;;
38123;SDS011;23934;47.998;9.832;2023-02-23T08:28:02;36.22;;;12.80;;
38123;SDS011;23934;47.998;9.832;2023-02-23T08:30:31;29.10;;;10.27;;
38123;SDS011;23934;47.998;9.832;2023-02-23T08:32:57;46.08;;;14.48;;
38123;SDS011;23934;47.998;9.832;2023-02-23T08:35:24;23.38;;;9.70;;
38123;SDS011;23934;47.998;9.832;2023-02-23T08:37:50;42.78;;;13.65;;
38123;SDS011;23934;47.998;9.832;2023-02-23T08:40:16;32.60;;;12.15;;
38123;SDS011;23934;47.998;9.832;2023-02-23T08:42:43;46.53;;;16.30;;
38123;SDS011;23934;47.998;9.832;2023-02-23T08:45:10;39.97;;;15.02;;
38123;SDS011;23934;47.998;9.832;2023-02-23T08:47:36;62.03;;;20.77;;
38123;SDS011;23934;47.998;9.832;2023-02-23T08:50:03;45.58;;;13.57;;
38123;SDS011;23934;47.998;9.832;2023-02-23T08:52:29;47.45;;;16.63;;
38123;SDS011;23934;47.998;9.832;2023-02-23T08:54:55;39.10;;;13.32;;
38123;SDS011;23934;47.998;9.832;2023-02-23T08:57:21;36.95;;;12.68;;
38123;SDS011;23934;47.998;9.832;2023-02-23T08:59:47;40.20;;;12.43;;
38123;SDS011;23934;47.998;9.832;2023-02-23T09:02:14;30.58;;;10.73;;
38123;SDS011;23934;47.998;9.832;2023-02-23T09:04:40;24.05;;;9.18;;
38123;SDS011;23934;47.998;9.832;2023-02-23T09:07:06;31.05;;;10.80;;
38123;SDS011;23934;47.998;9.832;2023-02-23T09:09:33;21.70;;;9.18;;
38123;SDS011;23934;47.998;9.832;2023-02-23T09:11:59;24.80;;;7.18;;
38123;SDS011;23934;47.998;9.832;2023-02-23T09:14:25;22.27;;;8.15;;
38123;SDS011;23934;47.998;9.832;2023-02-23T09:16:52;26.58;;;8.75;;
38123;SDS011;23934;47.998;9.832;2023-02-23T09:19:17;19.17;;;8.38;;
38123;SDS011;23934;47.998;9.832;2023-02-23T09:21:44;18.15;;;7.32;;
38123;SDS011;23934;47.998;9.832;2023-02-23T09:24:10;27.65;;;9.30;;
38123;SDS011;23934;47.998;9.832;2023-02-23T09:26:36;37.60;;;13.90;;
38123;SDS011;23934;47.998;9.832;2023-02-23T09:29:04;104.95;;;29.65;;
38123;SDS011;23934;47.998;9.832;2023-02-23T09:31:31;21.40;;;7.65;;
38123;SDS011;23934;47.998;9.832;2023-02-23T09:33:57;22.20;;;7.07;;
38123;SDS011;23934;47.998;9.832;2023-02-23T09:36:26;78.88;;;23.60;;
38123;SDS011;23934;47.998;9.832;2023-02-23T09:38:53;27.98;;;11.60;;
38123;SDS011;23934;47.998;9.832;2023-02-23T09:49:07;20.13;;;7.50;;
38123;SDS011;23934;47.998;9.832;2023-02-23T09:51:38;22.88;;;8.88;;
38123;SDS011;23934;47.998;9.832;2023-02-23T09:54:05;25.30;;;8.30;;
38123;SDS011;23934;47.998;9.832;2023-02-23T09:56:37;22.25;;;8.18;;
38123;SDS011;23934;47.998;9.832;2023-02-23T09:59:03;24.88;;;8.20;;
38123;SDS011;23934;47.998;9.832;2023-02-23T10:04:05;18.45;;;6.82;;
38123;SDS011;23934;47.998;9.832;2023-02-23T10:06:33;22.27;;;7.82;;
38123;SDS011;23934;47.998;9.832;2023-02-23T10:09:23;24.77;;;8.07;;
38123;SDS011;23934;47.998;9.832;2023-02-23T10:22:11;12.68;;;5.80;;
38123;SDS011;23934;47.998;9.832;2023-02-23T10:24:44;22.52;;;7.20;;
38123;SDS011;23934;47.998;9.832;2023-02-23T10:27:18;18.67;;;6.70;;
38123;SDS011;23934;47.998;9.832;2023-02-23T10:29:49;16.95;;;5.97;;
38123;SDS011;23934;47.998;9.832;2023-02-23T10:32:21;22.40;;;6.17;;
38123;SDS011;23934;47.998;9.832;2023-02-23T10:34:51;19.02;;;7.07;;
38123;SDS011;23934;47.998;9.832;2023-02-23T10:37:17;13.52;;;5.70;;
38123;SDS011;23934;47.998;9.832;2023-02-23T10:39:44;18.77;;;5.53;;
38123;SDS011;23934;47.998;9.832;2023-02-23T10:42:15;25.60;;;5.32;;
38123;SDS011;23934;47.998;9.832;2023-02-23T10:44:43;19.80;;;7.00;;
38123;SDS011;23934;47.998;9.832;2023-02-23T10:47:13;19.95;;;5.80;;
38123;SDS011;23934;47.998;9.832;2023-02-23T10:52:14;18.20;;;6.72;;
38123;SDS011;23934;47.998;9.832;2023-02-23T10:54:45;19.58;;;7.28;;
38123;SDS011;23934;47.998;9.832;2023-02-23T10:57:25;16.52;;;6.00;;
38123;SDS011;23934;47.998;9.832;2023-02-23T11:00:06;15.05;;;5.80;;
38123;SDS011;23934;47.998;9.832;2023-02-23T11:02:33;13.57;;;5.32;;
38123;SDS011;23934;47.998;9.832;2023-02-23T11:05:03;18.52;;;6.40;;
38123;SDS011;23934;47.998;9.832;2023-02-23T11:07:30;19.65;;;5.93;;
38123;SDS011;23934;47.998;9.832;2023-02-23T11:09:57;14.30;;;6.00;;
38123;SDS011;23934;47.998;9.832;2023-02-23T11:14:50;12.20;;;6.15;;
38123;SDS011;23934;47.998;9.832;2023-02-23T11:19:51;19.67;;;6.40;;
38123;SDS011;23934;47.998;9.832;2023-02-23T11:22:22;20.10;;;6.38;;
38123;SDS011;23934;47.998;9.832;2023-02-23T11:24:51;18.20;;;7.20;;
38123;SDS011;23934;47.998;9.832;2023-02-23T11:27:19;14.18;;;5.50;;
38123;SDS011;23934;47.998;9.832;2023-02-23T11:29:47;14.70;;;4.97;;
38123;SDS011;23934;47.998;9.832;2023-02-23T11:32:16;19.33;;;6.22;;
38123;SDS011;23934;47.998;9.832;2023-02-23T11:34:43;16.33;;;6.25;;
38123;SDS011;23934;47.998;9.832;2023-02-23T11:39:52;23.27;;;6.50;;
38123;SDS011;23934;47.998;9.832;2023-02-23T11:42:19;19.65;;;5.82;;
38123;SDS011;23934;47.998;9.832;2023-02-23T11:45:03;22.30;;;6.60;;
38123;SDS011;23934;47.998;9.832;2023-02-23T11:47:30;17.52;;;6.25;;
38123;SDS011;23934;47.998;9.832;2023-02-23T11:49:57;20.67;;;7.15;;
38123;SDS011;23934;47.998;9.832;2023-02-23T11:52:23;18.85;;;6.78;;
38123;SDS011;23934;47.998;9.832;2023-02-23T11:54:54;17.63;;;7.25;;
38123;SDS011;23934;47.998;9.832;2023-02-23T11:57:22;18.23;;;7.03;;
38123;SDS011;23934;47.998;9.832;2023-02-23T11:59:48;17.15;;;6.38;;
38123;SDS011;23934;47.998;9.832;2023-02-23T12:02:20;17.02;;;7.28;;
38123;SDS011;23934;47.998;9.832;2023-02-23T12:04:47;20.52;;;7.03;;
38123;SDS011;23934;47.998;9.832;2023-02-23T12:07:28;20.25;;;7.63;;
38123;SDS011;23934;47.998;9.832;2023-02-23T12:10:45;24.05;;;8.05;;
38123;SDS011;23934;47.998;9.832;2023-02-23T12:15:13;20.75;;;6.70;;
38123;SDS011;23934;47.998;9.832;2023-02-23T12:17:43;16.38;;;7.35;;
38123;SDS011;23934;47.998;9.832;2023-02-23T12:22:38;18.52;;;6.90;;
38123;SDS011;23934;47.998;9.832;2023-02-23T12:25:10;13.65;;;5.30;;
38123;SDS011;23934;47.998;9.832;2023-02-23T12:27:44;17.42;;;6.95;;
38123;SDS011;23934;47.998;9.832;2023-02-23T12:30:13;18.08;;;7.40;;
38123;SDS011;23934;47.998;9.832;2023-02-23T12:38:02;18.70;;;5.45;;
38123;SDS011;23934;47.998;9.832;2023-02-23T12:40:31;17.13;;;4.78;;
38123;SDS011;23934;47.998;9.832;2023-02-23T12:43:04;12.55;;;5.05;;
38123;SDS011;23934;47.998;9.832;2023-02-23T12:45:44;17.25;;;5.60;;
38123;SDS011;23934;47.998;9.832;2023-02-23T12:48:17;14.68;;;6.18;;
38123;SDS011;23934;47.998;9.832;2023-02-23T12:50:54;18.45;;;6.10;;
38123;SDS011;23934;47.998;9.832;2023-02-23T12:53:37;19.25;;;5.90;;
38123;SDS011;23934;47.998;9.832;2023-02-23T12:56:13;13.88;;;6.57;;
38123;SDS011;23934;47.998;9.832;2023-02-23T12:58:45;22.50;;;7.00;;
38123;SDS011;23934;47.998;9.832;2023-02-23T13:01:16;13.80;;;5.53;;
38123;SDS011;23934;47.998;9.832;2023-02-23T13:06:32;18.00;;;5.65;;
38123;SDS011;23934;47.998;9.832;2023-02-23T13:11:41;13.35;;;5.85;;
38123;SDS011;23934;47.998;9.832;2023-02-23T13:16:42;15.50;;;5.80;;
38123;SDS011;23934;47.998;9.832;2023-02-23T13:21:51;14.27;;;5.18;;
38123;SDS011;23934;47.998;9.832;2023-02-23T13:24:20;19.40;;;5.95;;
38123;SDS011;23934;47.998;9.832;2023-02-23T13:29:26;13.90;;;5.03;;
38123;SDS011;23934;47.998;9.832;2023-02-23T13:31:56;16.70;;;5.07;;
38123;SDS011;23934;47.998;9.832;2023-02-23T13:34:30;11.23;;;4.55;;
38123;SDS011;23934;47.998;9.832;2023-02-23T13:36:57;19.90;;;4.45;;
38123;SDS011;23934;47.998;9.832;2023-02-23T13:44:30;14.50;;;5.40;;
38123;SDS011;23934;47.998;9.832;2023-02-23T13:47:04;17.25;;;5.45;;
38123;SDS011;23934;47.998;9.832;2023-02-23T13:49:34;17.98;;;5.50;;
38123;SDS011;23934;47.998;9.832;2023-02-23T13:57:50;13.90;;;5.60;;
38123;SDS011;23934;47.998;9.832;2023-02-23T14:00:20;17.45;;;6.05;;
38123;SDS011;23934;47.998;9.832;2023-02-23T14:02:46;18.65;;;5.90;;
38123;SDS011;23934;47.998;9.832;2023-02-23T14:05:19;19.80;;;5.00;;
38123;SDS011;23934;47.998;9.832;2023-02-23T14:07:59;13.18;;;5.78;;
38123;SDS011;23934;47.998;9.832;2023-02-23T14:10:44;17.42;;;5.57;;
38123;SDS011;23934;47.998;9.832;2023-02-23T14:28:25;14.70;;;5.32;;
38123;SDS011;23934;47.998;9.832;2023-02-23T14:41:21;15.95;;;4.57;;
38123;SDS011;23934;47.998;9.832;2023-02-23T14:43:48;12.57;;;5.13;;
38123;SDS011;23934;47.998;9.832;2023-02-23T14:46:20;17.75;;;5.35;;
38123;SDS011;23934;47.998;9.832;2023-02-23T14:48:58;15.73;;;4.47;;
38123;SDS011;23934;47.998;9.832;2023-02-23T14:51:38;10.82;;;4.45;;
38123;SDS011;23934;47.998;9.832;2023-02-23T14:54:48;30.27;;;8.10;;
38123;SDS011;23934;47.998;9.832;2023-02-23T14:56:56;22.67;;;7.00;;
38123;SDS011;23934;47.998;9.832;2023-02-23T14:59:24;12.80;;;4.82;;
38123;SDS011;23934;47.998;9.832;2023-02-23T15:01:51;17.35;;;5.20;;
38123;SDS011;23934;47.998;9.832;2023-02-23T15:04:18;15.70;;;5.13;;
38123;SDS011;23934;47.998;9.832;2023-02-23T15:06:45;17.77;;;5.50;;
38123;SDS011;23934;47.998;9.832;2023-02-23T15:09:19;16.98;;;5.93;;
38123;SDS011;23934;47.998;9.832;2023-02-23T15:11:48;14.05;;;5.72;;
38123;SDS011;23934;47.998;9.832;2023-02-23T15:14:19;14.35;;;5.50;;
38123;SDS011;23934;47.998;9.832;2023-02-23T15:16:46;14.57;;;5.80;;
38123;SDS011;23934;47.998;9.832;2023-02-23T15:19:33;16.52;;;5.20;;
38123;SDS011;23934;47.998;9.832;2023-02-23T15:21:59;14.88;;;5.40;;
38123;SDS011;23934;47.998;9.832;2023-02-23T15:24:27;12.85;;;5.05;;
38123;SDS011;23934;47.998;9.832;2023-02-23T15:26:55;18.52;;;5.82;;
38123;SDS011;23934;47.998;9.832;2023-02-23T15:29:22;16.77;;;5.43;;
38123;SDS011;23934;47.998;9.832;2023-02-23T15:31:52;18.50;;;5.70;;
38123;SDS011;23934;47.998;9.832;2023-02-23T15:34:27;12.32;;;5.40;;
38123;SDS011;23934;47.998;9.832;2023-02-23T15:36:58;10.25;;;5.15;;
38123;SDS011;23934;47.998;9.832;2023-02-23T15:39:32;15.10;;;5.68;;
38123;SDS011;23934;47.998;9.832;2023-02-23T15:42:00;13.13;;;5.53;;
38123;SDS011;23934;47.998;9.832;2023-02-23T15:44:27;15.93;;;6.03;;
38123;SDS011;23934;47.998;9.832;2023-02-23T15:47:00;14.07;;;5.43;;
38123;SDS011;23934;47.998;9.832;2023-02-23T15:49:28;15.77;;;5.40;;
38123;SDS011;23934;47.998;9.832;2023-02-23T15:51:56;14.75;;;5.50;;
38123;SDS011;23934;47.998;9.832;2023-02-23T15:54:33;14.20;;;5.57;;
38123;SDS011;23934;47.998;9.832;2023-02-23T15:57:07;14.75;;;5.45;;
38123;SDS011;23934;47.998;9.832;2023-02-23T15:59:40;14.30;;;5.55;;
38123;SDS011;23934;47.998;9.832;2023-02-23T16:02:12;15.20;;;5.72;;
38123;SDS011;23934;47.998;9.832;2023-02-23T16:04:40;13.05;;;5.10;;
38123;SDS011;23934;47.998;9.832;2023-02-23T16:07:14;21.75;;;6.05;;
38123;SDS011;23934;47.998;9.832;2023-02-23T16:09:46;13.27;;;5.25;;
38123;SDS011;23934;47.998;9.832;2023-02-23T16:12:13;14.68;;;5.50;;
38123;SDS011;23934;47.998;9.832;2023-02-23T16:14:49;17.05;;;5.35;;
38123;SDS011;23934;47.998;9.832;2023-02-23T16:17:27;20.67;;;5.85;;
38123;SDS011;23934;47.998;9.832;2023-02-23T16:20:05;20.98;;;6.00;;
38123;SDS011;23934;47.998;9.832;2023-02-23T16:22:36;15.52;;;6.32;;
38123;SDS011;23934;47.998;9.832;2023-02-23T16:25:07;13.95;;;5.70;;
38123;SDS011;23934;47.998;9.832;2023-02-23T16:27:35;13.60;;;5.25;;
38123;SDS011;23934;47.998;9.832;2023-02-23T16:30:18;22.95;;;6.05;;
38123;SDS011;23934;47.998;9.832;2023-02-23T16:32:47;19.17;;;5.90;;
38123;SDS011;23934;47.998;9.832;2023-02-23T16:35:17;16.00;;;6.25;;
38123;SDS011;23934;47.998;9.832;2023-02-23T16:38:45;14.18;;;5.28;;
38123;SDS011;23934;47.998;9.832;2023-02-23T16:40:39;10.73;;;4.85;;
38123;SDS011;23934;47.998;9.832;2023-02-23T16:43:05;18.80;;;5.60;;
38123;SDS011;23934;47.998;9.832;2023-02-23T16:45:31;19.73;;;3.75;;